Radar AviationWeather DUATS TFRs Wunderground Accuweather Weather.com

alt : Radar

TAFs

KDTW 201512Z 2015/2118 11006KT P6SM SCT030 BKN250
     TEMPO 2016/2018 BKN030
   FM201800 12007KT P6SM FEW040 BKN250
   FM210300 11005KT P6SM -SHRA BKN040 OVC080
   FM210600 12004KT 6SM -SHRA OVC025
   FM210900 14004KT 4SM -SHRA OVC015
KJXN 201143Z 2012/2112 12007KT P6SM BKN250
   FM201900 13008KT P6SM OVC150
   FM210100 12008KT 6SM -SHRA SCT050 OVC090
   FM210300 12007KT 3SM -SHRA BR OVC030
   FM210600 14005KT 2SM -SHRA BR VCTS OVC015CB
   FM210900 15005KT 2SM -SHRA BR VCTS OVC009CB
KFWA 201130Z 2012/2112 12009KT P6SM SCT030 OVC200
   FM202000 14011KT 6SM -SHRA BR VCTS BKN040CB
     TEMPO 2020/2023 3SM TSRA BR BKN020CB
   FM210100 13007KT P6SM VCSH BKN035
   FM210600 17007KT 4SM -SHRA BR BKN015
KFDY 201120Z 2012/2112 12004KT P6SM FEW250
     TEMPO 2012/2013 5SM BR
   FM210000 14005KT P6SM OVC060
   FM210200 15006KT 6SM -SHRA BR VCTS OVC045CB
   FM210600 18009KT 4SM -SHRA BR VCTS OVC035CB
   FM210900 18009KT 4SM -SHRA BR VCTS OVC015CB
KTOL 201120Z 2012/2112 VRB03KT P6SM FEW250
     TEMPO 2012/2013 5SM BR
   FM210000 10007KT P6SM OVC060
   FM210200 11007KT 6SM -SHRA BR VCTS OVC050CB
   FM210600 17007KT 4SM -SHRA BR VCTS OVC035CB
   FM210900 17007KT 4SM -SHRA BR VCTS OVC015CB
KCLE 201120Z 2012/2118 14005KT P6SM FEW250
   FM201800 08009KT P6SM SCT250
   FM210400 14011KT P6SM BKN070
   FM210600 15010KT 6SM -SHRA BR VCTS OVC035CB
   FM210900 15010KT 5SM -SHRA BR VCTS OVC025CB
   FM211300 17012KT 6SM -SHRA BR VCSH OVC015
   FM211700 20014G20KT 6SM -SHRA BR VCSH OVC025

METARs

KJXN 201456Z 11011KT 10SM CLR 23/18 A3003 RMK AO2 SLP164 T02330183 58000
KDUH 201455Z AUTO 15005KT 10SM CLR 25/18 A3003 RMK AO2 T02450177
KFWA 201454Z 09012KT 10SM OVC250 24/21 A2998 RMK AO2 SLP149 T02440206 58007 $
KDTW 201453Z 09007KT 9SM SCT025 OVC250 24/17 A3004 RMK AO2 SLP169 T02440172 58004
KFDY 201453Z AUTO 14007KT 10SM CLR 23/19 A3002 RMK AO2 SLP158 T02280189 50002
KTDZ 201453Z AUTO 11006KT 10SM CLR 24/19 A3004 RMK AO2 SLP168 T02390189 58000
KTOL 201452Z 12008KT 10SM CLR 24/17 A3003 RMK AO2 SLP164 T02440172 58001
KCLE 201451Z 00000KT 10SM SCT250 25/18 A3006 RMK AO2 SLP175 T02500183 58003 $

alt : Satellite

alt : TFRs